Time;durP1;ratioP1;P1;durP2;ratioP2;P2;SDS_P1;SDS_P2;PMS_P1;PMS_P2;Temp;Humidity;BMP_temperature;BMP_pressure;BME280_temperature;BME280_humidity;BME280_pressure;Samples;Min_cycle;Max_cycle;Signal;HPM_P1;HPM_P2
2022/05/14 00:00:38;;;;;;;12.60;10.57;;;12.80;99.90;;;;;;5055015;28;20024;-88
2022/05/14 00:03:06;;;;;;;16.52;10.88;;;12.80;99.90;;;;;;5072812;28;20374;-88
2022/05/14 00:05:31;;;;;;;15.40;10.20;;;12.80;99.90;;;;;;5054861;28;20385;-89
2022/05/14 00:07:57;;;;;;;16.13;10.70;;;12.80;99.90;;;;;;5054801;28;20021;-88
2022/05/14 00:10:29;;;;;;;13.00;10.35;;;12.90;99.90;;;;;;5072973;28;20021;-88
2022/05/14 00:13:05;;;;;;;13.38;10.30;;;12.90;99.90;;;;;;5054849;28;20444;-88
2022/05/14 00:15:39;;;;;;;14.40;10.02;;;12.90;99.90;;;;;;5054470;28;20043;-88
2022/05/14 00:18:09;;;;;;;11.17;9.50;;;13.00;99.90;;;;;;5054811;28;20412;-88
2022/05/14 00:20:40;;;;;;;17.02;9.98;;;13.00;99.90;;;;;;5054770;28;20108;-88
2022/05/14 00:23:08;;;;;;;15.85;9.32;;;13.00;99.90;;;;;;5054643;28;20051;-87
2022/05/14 00:25:36;;;;;;;13.63;9.50;;;13.00;99.90;;;;;;5054592;28;20115;-88
2022/05/14 00:28:03;;;;;;;12.50;8.18;;;12.90;99.90;;;;;;5054890;28;20043;-88
2022/05/14 00:30:30;;;;;;;13.25;8.90;;;12.90;99.90;;;;;;5054403;28;20021;-88
2022/05/14 00:32:59;;;;;;;9.57;7.95;;;12.90;99.90;;;;;;5072630;28;20020;-88
2022/05/14 00:35:25;;;;;;;10.75;8.82;;;12.80;99.90;;;;;;5072365;28;20042;-88
2022/05/14 00:37:51;;;;;;;15.30;8.52;;;12.80;99.90;;;;;;5054428;28;20377;-89
2022/05/14 00:40:22;;;;;;;13.32;8.23;;;12.80;99.90;;;;;;5054688;28;20377;-88
2022/05/14 00:42:49;;;;;;;11.93;8.70;;;12.70;99.90;;;;;;5054526;28;20025;-87
2022/05/14 00:45:18;;;;;;;13.48;9.75;;;12.70;99.90;;;;;;5074190;28;20021;-88
2022/05/14 00:47:48;;;;;;;16.30;9.20;;;12.60;99.90;;;;;;5058821;28;20050;-89
2022/05/14 00:50:39;;;;;;;10.35;9.25;;;12.60;99.90;;;;;;5058029;28;20170;-88
2022/05/14 00:53:37;;;;;;;13.77;9.93;;;12.60;99.90;;;;;;5076562;28;20058;-88
2022/05/14 00:56:09;;;;;;;12.02;9.90;;;12.60;99.90;;;;;;5054090;28;20041;-88
2022/05/14 00:59:05;;;;;;;13.75;10.07;;;12.50;99.90;;;;;;5058424;28;20377;-88
2022/05/14 01:01:31;;;;;;;15.50;9.90;;;12.50;99.90;;;;;;5057966;28;20055;-88
2022/05/14 01:03:59;;;;;;;13.63;9.93;;;12.50;99.90;;;;;;5075928;28;20029;-87
2022/05/14 01:06:29;;;;;;;11.82;9.73;;;12.40;99.90;;;;;;5057981;28;20021;-88
2022/05/14 01:08:54;;;;;;;14.98;10.18;;;12.40;99.90;;;;;;5075698;28;20039;-88
2022/05/14 01:11:20;;;;;;;12.85;9.57;;;12.30;99.90;;;;;;5057868;28;20029;-88
2022/05/14 01:13:46;;;;;;;15.75;9.95;;;12.30;99.90;;;;;;5075795;28;20081;-87
2022/05/14 01:16:15;;;;;;;13.55;9.05;;;12.30;99.90;;;;;;5075992;28;20054;-88
2022/05/14 01:18:42;;;;;;;12.93;9.25;;;12.30;99.90;;;;;;5058482;28;20108;-88
2022/05/14 01:21:28;;;;;;;16.48;10.77;;;12.30;99.90;;;;;;5057467;28;20533;-87
2022/05/14 01:26:37;;;;;;;14.25;9.68;;;12.20;99.90;;;;;;5075492;28;20034;-88
2022/05/14 01:29:11;;;;;;;12.85;9.95;;;12.10;99.90;;;;;;5057634;28;20107;-87
2022/05/14 01:31:39;;;;;;;12.02;9.77;;;12.10;99.90;;;;;;5075658;28;20029;-87
2022/05/14 01:34:12;;;;;;;16.42;10.57;;;12.10;99.90;;;;;;5057432;28;20026;-87
2022/05/14 01:36:39;;;;;;;14.48;9.63;;;12.00;99.90;;;;;;5057411;28;20097;-87
2022/05/14 01:39:06;;;;;;;16.25;9.25;;;12.00;99.90;;;;;;5075498;28;20048;-87
2022/05/14 01:41:32;;;;;;;12.82;9.75;;;11.90;99.90;;;;;;5057405;28;20124;-87
2022/05/14 01:44:00;;;;;;;12.80;9.27;;;11.90;99.90;;;;;;5057243;28;20107;-88
2022/05/14 01:46:28;;;;;;;10.68;9.55;;;11.90;99.90;;;;;;5075105;28;20032;-88
2022/05/14 01:48:56;;;;;;;14.35;9.40;;;11.80;99.90;;;;;;5075097;28;20043;-88
2022/05/14 01:51:22;;;;;;;15.75;10.13;;;11.80;99.90;;;;;;5056901;28;20048;-90
2022/05/14 01:53:50;;;;;;;11.43;10.00;;;11.80;99.90;;;;;;5057127;28;20377;-89
2022/05/14 01:56:15;;;;;;;17.17;9.70;;;11.80;99.90;;;;;;5063613;28;20053;-89
2022/05/14 01:58:41;;;;;;;14.18;9.85;;;11.80;99.90;;;;;;5054908;28;20516;-89
2022/05/14 02:01:11;;;;;;;16.23;9.65;;;11.80;99.90;;;;;;5036948;28;20470;-87
2022/05/14 02:03:39;;;;;;;16.08;9.75;;;11.80;99.90;;;;;;5054701;28;20021;-86
2022/05/14 02:06:07;;;;;;;14.05;9.05;;;11.80;99.90;;;;;;5054892;28;20043;-86
2022/05/14 02:08:38;;;;;;;17.10;9.30;;;11.70;99.90;;;;;;5054658;28;20025;-87
2022/05/14 02:11:08;;;;;;;11.52;9.93;;;11.70;99.90;;;;;;5036753;28;20032;-87
2022/05/14 02:13:34;;;;;;;11.10;8.98;;;11.80;99.90;;;;;;5060381;28;20024;-87
2022/05/14 02:16:00;;;;;;;15.32;9.60;;;11.80;99.90;;;;;;5056317;28;20377;-87
2022/05/14 02:18:29;;;;;;;13.27;10.07;;;11.80;99.90;;;;;;5074601;28;20021;-87
2022/05/14 02:20:55;;;;;;;14.65;10.68;;;11.80;99.90;;;;;;5074562;28;20031;-87
2022/05/14 02:23:21;;;;;;;12.95;10.68;;;11.90;99.90;;;;;;5074798;28;20017;-87
2022/05/14 02:25:49;;;;;;;13.52;10.52;;;11.90;99.90;;;;;;5056572;28;20086;-87
2022/05/14 02:28:24;;;;;;;12.60;10.40;;;11.90;99.90;;;;;;5074283;28;20089;-87
2022/05/14 02:30:50;;;;;;;14.70;10.75;;;11.90;99.90;;;;;;5074411;28;20538;-87
2022/05/14 02:33:18;;;;;;;15.32;10.23;;;11.90;99.90;;;;;;5056326;28;20028;-86
2022/05/14 02:35:44;;;;;;;15.32;10.50;;;11.90;99.90;;;;;;5074212;28;20036;-87
2022/05/14 02:38:10;;;;;;;11.80;9.25;;;11.90;99.90;;;;;;5074333;28;20465;-87
2022/05/14 02:40:38;;;;;;;14.55;10.35;;;11.90;99.90;;;;;;5056570;28;20032;-87
2022/05/14 02:43:06;;;;;;;12.43;9.82;;;11.90;99.90;;;;;;5074230;28;20032;-87
2022/05/14 02:45:32;;;;;;;14.55;10.23;;;11.80;99.90;;;;;;5074498;28;20033;-87
2022/05/14 02:47:59;;;;;;;12.00;10.13;;;11.80;99.90;;;;;;5074527;28;20595;-87
2022/05/14 02:50:27;;;;;;;14.00;9.48;;;11.80;99.90;;;;;;5074415;28;20052;-87
2022/05/14 02:52:56;;;;;;;15.25;9.82;;;11.70;99.90;;;;;;5074200;28;20020;-86
2022/05/14 02:55:21;;;;;;;15.70;9.88;;;11.70;99.90;;;;;;5056307;28;20024;-86
2022/05/14 02:57:49;;;;;;;11.52;9.73;;;11.70;99.90;;;;;;5055912;28;20369;-87
2022/05/14 03:00:22;;;;;;;13.82;9.38;;;11.60;99.90;;;;;;5073721;28;20837;-88
2022/05/14 03:02:50;;;;;;;13.95;8.98;;;11.60;99.90;;;;;;5055799;28;20355;-88
2022/05/14 03:05:17;;;;;;;13.65;9.55;;;11.50;99.90;;;;;;5055797;28;20406;-88
2022/05/14 03:07:48;;;;;;;14.13;9.35;;;11.50;99.90;;;;;;5071596;28;20029;-88
2022/05/14 03:10:14;;;;;;;12.55;9.73;;;11.50;99.90;;;;;;5073657;28;20028;-87
2022/05/14 03:12:40;;;;;;;10.65;9.25;;;11.50;99.90;;;;;;5073714;28;20024;-87
2022/05/14 03:15:09;;;;;;;14.20;9.70;;;11.50;99.90;;;;;;5073306;28;20798;-87
2022/05/14 03:17:39;;;;;;;14.40;10.57;;;11.40;99.90;;;;;;5055529;28;20021;-88
2022/05/14 03:20:11;;;;;;;17.50;10.65;;;11.40;99.90;;;;;;5073397;28;20410;-87
2022/05/14 03:22:38;;;;;;;14.23;10.10;;;11.40;99.90;;;;;;5073423;28;20473;-88
2022/05/14 03:25:06;;;;;;;13.45;9.27;;;11.40;99.90;;;;;;5055355;28;20025;-88
2022/05/14 03:27:31;;;;;;;14.95;9.57;;;11.40;99.90;;;;;;5072945;28;20124;-87
2022/05/14 03:29:59;;;;;;;12.48;8.80;;;11.40;99.90;;;;;;5073445;28;20039;-88
2022/05/14 03:32:27;;;;;;;13.43;8.18;;;11.30;99.90;;;;;;5073202;28;20439;-87
2022/05/14 03:34:54;;;;;;;11.73;8.75;;;11.30;99.90;;;;;;5055378;28;20408;-88
2022/05/14 03:37:21;;;;;;;9.65;8.57;;;11.30;99.90;;;;;;5055032;28;20028;-87
2022/05/14 03:39:49;;;;;;;11.48;8.90;;;11.30;99.90;;;;;;5073188;28;20021;-87
2022/05/14 03:42:15;;;;;;;12.73;9.07;;;11.30;99.90;;;;;;5055051;28;20029;-87
2022/05/14 03:44:41;;;;;;;13.02;8.48;;;11.30;99.90;;;;;;5055484;28;20024;-87
2022/05/14 03:47:06;;;;;;;12.13;9.27;;;11.30;99.90;;;;;;5073148;28;20032;-87
2022/05/14 03:49:32;;;;;;;11.18;8.63;;;11.30;99.90;;;;;;5072063;28;20059;-87
2022/05/14 03:51:58;;;;;;;12.15;8.38;;;11.30;99.90;;;;;;5054897;28;20060;-88
2022/05/14 03:54:32;;;;;;;10.23;8.77;;;11.30;99.90;;;;;;5073031;28;20037;-88
2022/05/14 03:56:57;;;;;;;10.48;9.05;;;11.30;99.90;;;;;;5054996;28;20039;-87
2022/05/14 03:59:23;;;;;;;12.45;10.13;;;11.30;99.90;;;;;;5054943;28;20025;-87
2022/05/14 04:01:48;;;;;;;17.90;9.75;;;11.30;99.90;;;;;;5055275;28;20493;-88
2022/05/14 04:04:16;;;;;;;11.98;9.15;;;11.30;99.90;;;;;;5071600;28;20032;-88
2022/05/14 04:06:42;;;;;;;10.05;8.05;;;11.30;99.90;;;;;;5073260;28;20516;-88
2022/05/14 04:09:10;;;;;;;11.30;8.77;;;11.30;99.90;;;;;;5072865;28;20060;-87
2022/05/14 04:11:37;;;;;;;9.73;8.35;;;11.40;99.90;;;;;;5072500;28;20024;-87
2022/05/14 04:14:03;;;;;;;11.88;8.85;;;11.40;99.90;;;;;;5071126;28;20025;-87
2022/05/14 04:16:28;;;;;;;12.57;8.82;;;11.40;99.90;;;;;;5059764;28;20027;-87
2022/05/14 04:18:57;;;;;;;10.00;8.57;;;11.50;99.90;;;;;;5068231;28;20472;-87
2022/05/14 04:21:22;;;;;;;10.70;7.88;;;11.50;99.90;;;;;;5076486;28;20042;-87
2022/05/14 04:23:50;;;;;;;10.25;8.52;;;11.50;99.90;;;;;;5058613;28;20125;-86
2022/05/14 04:26:22;;;;;;;10.70;8.90;;;11.60;99.90;;;;;;5050711;28;20031;-86
2022/05/14 04:28:48;;;;;;;12.15;9.68;;;11.60;99.90;;;;;;5065672;28;20055;-87
2022/05/14 04:31:21;;;;;;;15.25;9.90;;;11.60;99.90;;;;;;5058741;28;20052;-86
2022/05/14 04:33:49;;;;;;;11.70;9.57;;;11.70;99.90;;;;;;5062568;28;20126;-87
2022/05/14 04:36:19;;;;;;;13.75;11.45;;;11.80;99.90;;;;;;5050335;28;20491;-87
2022/05/14 04:38:45;;;;;;;11.95;10.75;;;11.90;99.90;;;;;;5058284;28;20035;-87
2022/05/14 04:41:10;;;;;;;15.05;10.48;;;12.00;99.90;;;;;;5058212;28;20021;-86
2022/05/14 04:43:36;;;;;;;12.05;10.85;;;12.10;99.90;;;;;;5076258;28;20031;-86
2022/05/14 04:46:06;;;;;;;14.15;10.20;;;12.30;99.90;;;;;;5076459;28;20122;-87
2022/05/14 04:48:32;;;;;;;12.48;10.07;;;12.40;99.90;;;;;;5058624;28;20392;-72
2022/05/14 04:50:57;;;;;;;16.13;11.32;;;12.60;99.90;;;;;;5076324;28;20048;-73
2022/05/14 04:53:23;;;;;;;17.60;11.68;;;12.70;99.90;;;;;;5076447;28;20374;-75
2022/05/14 04:55:50;;;;;;;12.27;10.00;;;12.90;99.90;;;;;;5060634;28;20036;-90
2022/05/14 04:58:15;;;;;;;15.00;11.20;;;13.00;99.90;;;;;;5056620;28;20022;-88
2022/05/14 05:00:41;;;;;;;12.52;10.70;;;13.00;99.90;;;;;;5038590;28;20040;-88
2022/05/14 05:03:16;;;;;;;13.35;9.82;;;13.10;99.90;;;;;;5056180;28;20079;-88
2022/05/14 05:05:46;;;;;;;12.05;9.30;;;13.20;99.90;;;;;;5056179;28;20070;-88
2022/05/14 05:08:12;;;;;;;15.55;10.80;;;13.30;99.90;;;;;;5056017;28;20098;-89
2022/05/14 05:10:38;;;;;;;12.82;9.60;;;13.30;99.90;;;;;;5056396;28;20048;-88
2022/05/14 05:13:07;;;;;;;10.45;9.35;;;13.40;99.90;;;;;;5054645;28;20057;-88
2022/05/14 05:15:33;;;;;;;12.07;9.50;;;13.40;99.90;;;;;;5054499;28;20075;-88
2022/05/14 05:17:58;;;;;;;11.27;9.55;;;13.50;99.90;;;;;;5056002;28;20021;-88
2022/05/14 05:20:24;;;;;;;13.50;8.82;;;13.50;99.90;;;;;;5056106;28;20020;-88
2022/05/14 05:22:50;;;;;;;12.48;10.05;;;13.50;99.90;;;;;;5054474;28;20454;-89
2022/05/14 05:25:15;;;;;;;12.23;9.68;;;13.60;99.90;;;;;;5038135;28;20120;-88
2022/05/14 05:27:52;;;;;;;11.68;9.00;;;13.70;99.90;;;;;;5038902;28;20033;-89
2022/05/14 05:30:22;;;;;;;10.90;8.82;;;13.80;99.90;;;;;;5054144;28;20052;-87
2022/05/14 05:32:53;;;;;;;13.73;9.55;;;13.90;99.90;;;;;;5038137;28;20466;-88
2022/05/14 05:35:25;;;;;;;10.93;9.00;;;14.00;99.90;;;;;;5054457;28;20028;-87
2022/05/14 05:37:57;;;;;;;12.98;8.57;;;14.10;99.90;;;;;;5037627;28;20029;-87
2022/05/14 05:40:24;;;;;;;13.20;8.63;;;14.20;99.90;;;;;;5054648;28;20028;-88
2022/05/14 05:42:54;;;;;;;13.63;8.35;;;14.20;99.90;;;;;;5054815;28;20028;-88
2022/05/14 05:45:21;;;;;;;11.93;8.52;;;14.30;99.90;;;;;;5037082;28;20028;-88
2022/05/14 05:47:47;;;;;;;12.20;8.70;;;14.30;99.90;;;;;;5037648;28;20466;-88
2022/05/14 05:50:13;;;;;;;15.57;8.30;;;14.40;99.90;;;;;;5055047;28;20052;-88
2022/05/14 05:52:39;;;;;;;11.10;7.90;;;14.30;99.90;;;;;;5055147;28;20104;-88
2022/05/14 05:57:50;;;;;;;10.75;8.15;;;14.40;99.90;;;;;;5075033;28;20027;-88
2022/05/14 06:00:20;;;;;;;13.45;8.05;;;14.30;99.90;;;;;;5056711;28;20040;-88
2022/05/14 06:02:46;;;;;;;13.27;9.68;;;14.40;99.90;;;;;;5074694;28;20029;-88
2022/05/14 06:05:13;;;;;;;11.80;8.27;;;14.40;99.90;;;;;;5056742;28;20032;-88
2022/05/14 06:07:39;;;;;;;11.88;8.43;;;14.30;99.90;;;;;;5056894;28;20094;-88
2022/05/14 06:10:06;;;;;;;13.10;8.60;;;14.40;99.90;;;;;;5074652;28;20055;-88
2022/05/14 06:12:34;;;;;;;9.32;7.60;;;14.40;99.90;;;;;;5075036;28;20082;-88
2022/05/14 06:15:00;;;;;;;11.85;8.05;;;14.60;99.90;;;;;;5074250;28;20039;-88
2022/05/14 06:17:27;;;;;;;15.00;7.70;;;14.70;99.90;;;;;;5056782;28;20372;-88
2022/05/14 06:19:53;;;;;;;10.10;8.10;;;14.80;99.90;;;;;;5071560;28;20032;-88
2022/05/14 06:22:19;;;;;;;25.05;8.93;;;14.90;99.90;;;;;;5056338;28;20083;-88
2022/05/14 06:24:45;;;;;;;13.35;7.68;;;15.00;99.90;;;;;;5054320;28;20345;-88
2022/05/14 06:27:10;;;;;;;14.38;8.10;;;15.10;99.90;;;;;;5054606;28;20035;-88
2022/05/14 06:29:36;;;;;;;13.07;8.38;;;15.10;99.90;;;;;;5055060;28;20036;-88
2022/05/14 06:32:02;;;;;;;12.27;8.20;;;15.20;99.90;;;;;;5074298;28;20081;-88
2022/05/14 06:34:30;;;;;;;11.63;8.23;;;15.20;99.90;;;;;;5074243;28;20028;-88
2022/05/14 06:36:55;;;;;;;11.85;7.80;;;15.30;99.90;;;;;;5061080;28;20377;-88
2022/05/14 06:39:21;;;;;;;15.38;8.18;;;15.50;99.90;;;;;;5054215;28;20025;-88
2022/05/14 06:41:48;;;;;;;9.95;7.30;;;15.60;99.90;;;;;;5054974;28;20064;-88
2022/05/14 06:44:14;;;;;;;12.18;7.57;;;15.80;99.90;;;;;;5073415;28;20024;-88
2022/05/14 06:46:40;;;;;;;10.70;6.93;;;15.90;99.90;;;;;;5075094;28;20036;-88
2022/05/14 06:49:06;;;;;;;10.60;7.22;;;16.10;99.90;;;;;;5072071;28;20082;-88
2022/05/14 06:51:33;;;;;;;9.10;6.70;;;16.30;99.90;;;;;;5072374;28;20058;-87
2022/05/14 06:54:03;;;;;;;11.60;7.45;;;16.40;99.90;;;;;;5072152;28;20100;-88
2022/05/14 06:56:32;;;;;;;7.75;6.32;;;16.60;99.90;;;;;;5073227;28;20469;-88
2022/05/14 06:59:00;;;;;;;12.10;6.50;;;16.70;99.90;;;;;;5073396;28;20046;-89
2022/05/14 07:01:27;;;;;;;10.75;6.20;;;16.70;99.90;;;;;;5073356;28;20031;-88
2022/05/14 07:06:39;;;;;;;11.75;5.88;;;16.90;99.90;;;;;;5073481;28;20032;-87
2022/05/14 07:09:12;;;;;;;9.32;5.85;;;16.90;99.90;;;;;;5073135;28;20037;-88
2022/05/14 07:11:41;;;;;;;11.00;6.47;;;17.10;99.90;;;;;;5055180;28;20496;-88
2022/05/14 07:14:08;;;;;;;12.25;5.63;;;17.10;99.90;;;;;;5072997;28;20025;-88
2022/05/14 07:16:34;;;;;;;11.00;5.63;;;17.20;99.90;;;;;;5055650;28;20078;-88
2022/05/14 07:19:06;;;;;;;11.35;5.80;;;17.30;99.90;;;;;;5055204;28;20025;-88
2022/05/14 07:25:12;;;;;;;14.80;6.15;;;17.40;99.90;;;;;;5011325;28;20104;-88
2022/05/14 07:36:12;;;;;;;11.13;5.38;;;17.60;99.90;;;;;;4952605;28;20094;-88
2022/05/14 07:43:23;;;;;;;12.75;4.55;;;17.80;99.90;;;;;;4857898;29;20030;-88
2022/05/14 07:46:44;;;;;;;8.25;3.75;;;18.00;99.90;;;;;;4784931;30;20036;-87
2022/05/14 07:49:43;;;;;;;8.05;4.20;;;18.10;99.90;;;;;;4784580;29;20036;-88
2022/05/14 07:52:19;;;;;;;8.05;3.25;;;18.10;99.90;;;;;;4770170;30;20043;-88
2022/05/14 07:59:33;;;;;;;;;;;;;;;;;;;;;
2022/05/14 08:03:10;;;;;;;5.82;1.85;;;18.20;99.90;;;;;;4775427;29;20047;-88
2022/05/14 08:13:03;;;;;;;6.65;2.10;;;18.30;99.90;;;;;;4913530;29;20031;-88
2022/05/14 08:16:32;;;;;;;;;;;;;;;;;;;;;
2022/05/14 08:19:20;;;;;;;10.02;3.03;;;18.40;99.90;;;;;;5004894;28;20793;-88
2022/05/14 08:25:22;;;;;;;7.20;1.90;;;18.40;99.90;;;;;;5030219;28;20029;-88
2022/05/14 08:31:40;;;;;;;6.03;2.22;;;18.50;99.90;;;;;;4951928;29;20174;-89
2022/05/14 08:34:50;;;;;;;6.10;2.10;;;18.60;99.90;;;;;;5002947;28;20092;-88
2022/05/14 08:37:51;;;;;;;9.93;2.05;;;18.60;99.90;;;;;;5058466;28;20554;-88
2022/05/14 08:44:10;;;;;;;7.65;1.80;;;18.60;99.90;;;;;;5049889;28;20033;-88
2022/05/14 08:54:08;;;;;;;4.13;1.50;;;18.90;99.90;;;;;;4961104;28;20033;-89
2022/05/14 09:00:19;;;;;;;6.25;1.90;;;19.30;99.90;;;;;;4973817;28;20041;-88
2022/05/14 09:03:12;;;;;;;5.03;2.13;;;19.40;99.90;;;;;;5039422;28;20067;-88
2022/05/14 09:05:42;;;;;;;6.95;1.80;;;19.40;99.90;;;;;;5068292;28;20029;-88
2022/05/14 09:08:10;;;;;;;6.90;2.20;;;19.40;99.90;;;;;;5075159;28;20013;-88
2022/05/14 09:10:41;;;;;;;5.43;1.92;;;19.50;99.90;;;;;;5075145;28;20038;-88
2022/05/14 09:13:20;;;;;;;4.57;1.70;;;19.60;99.90;;;;;;5075564;28;20047;-88
2022/05/14 09:15:56;;;;;;;11.25;2.33;;;19.70;99.90;;;;;;5075199;28;20373;-89
2022/05/14 09:18:40;;;;;;;7.30;1.88;;;19.80;99.90;;;;;;5057353;28;20318;-88
2022/05/14 09:21:40;;;;;;;7.13;2.10;;;20.00;99.90;;;;;;5075017;28;20028;-88
2022/05/14 09:24:26;;;;;;;6.25;1.88;;;20.30;99.90;;;;;;5074118;28;20029;-89
2022/05/14 09:26:56;;;;;;;6.68;2.20;;;20.50;99.90;;;;;;5056995;28;20048;-88
2022/05/14 09:29:39;;;;;;;5.25;1.88;;;20.70;99.90;;;;;;5074958;28;20549;-89
2022/05/14 09:32:27;;;;;;;6.35;1.65;;;21.00;99.90;;;;;;5075104;28;20035;-89
2022/05/14 09:35:07;;;;;;;8.82;2.13;;;21.20;99.90;;;;;;5056148;28;20127;-89
2022/05/14 09:37:42;;;;;;;6.60;1.85;;;21.60;99.90;;;;;;5056979;28;20036;-88
2022/05/14 09:40:31;;;;;;;4.03;1.88;;;21.80;99.90;;;;;;5074931;28;20024;-86
2022/05/14 09:43:20;;;;;;;5.88;1.92;;;22.20;99.90;;;;;;5056510;28;20020;-89
2022/05/14 09:49:23;;;;;;;4.45;2.13;;;22.80;99.90;;;;;;5031736;28;20032;-87
2022/05/14 09:52:13;;;;;;;5.22;1.90;;;23.20;99.90;;;;;;5056434;28;20123;-86
2022/05/14 09:54:52;;;;;;;4.22;1.80;;;23.40;99.80;;;;;;5046690;28;20032;-87
2022/05/14 09:57:30;;;;;;;8.88;2.00;;;23.20;99.50;;;;;;5069808;28;20578;-87
2022/05/14 10:00:22;;;;;;;5.90;2.00;;;22.80;99.60;;;;;;5056294;28;20024;-87
2022/05/14 10:03:30;;;;;;;6.20;2.35;;;22.70;99.90;;;;;;5074558;28;20024;-87
2022/05/14 10:06:04;;;;;;;6.30;2.53;;;23.00;99.90;;;;;;5054355;28;20036;-87
2022/05/14 10:08:50;;;;;;;6.03;2.30;;;23.00;99.90;;;;;;5055407;28;20021;-87
2022/05/14 10:11:31;;;;;;;5.80;2.30;;;22.80;99.90;;;;;;5038123;28;20021;-87
2022/05/14 10:14:02;;;;;;;8.40;1.95;;;22.70;99.90;;;;;;5055418;28;20032;-88
2022/05/14 10:16:36;;;;;;;6.68;2.30;;;22.70;99.90;;;;;;5054824;28;20556;-87
2022/05/14 10:19:11;;;;;;;5.57;2.03;;;22.70;99.90;;;;;;5043775;28;20665;-88
2022/05/14 10:22:15;;;;;;;4.65;2.08;;;23.00;99.90;;;;;;5076094;28;20044;-87
2022/05/14 10:28:09;;;;;;;9.43;2.17;;;23.40;99.10;;;;;;4973475;28;20081;-87
2022/05/14 10:31:02;;;;;;;5.32;1.90;;;23.40;99.90;;;;;;5027820;28;20041;-87
2022/05/14 10:33:30;;;;;;;5.07;1.85;;;23.50;99.90;;;;;;5036254;28;20029;-87
2022/05/14 10:36:13;;;;;;;5.50;2.08;;;23.60;99.90;;;;;;5051222;28;20040;-87
2022/05/14 10:38:45;;;;;;;6.15;2.28;;;24.10;97.60;;;;;;5033378;28;20025;-87
2022/05/14 10:41:13;;;;;;;5.07;1.95;;;24.50;95.80;;;;;;5032314;28;20029;-88
2022/05/14 10:43:54;;;;;;;6.97;2.10;;;24.40;97.60;;;;;;5052959;28;20021;-87
2022/05/14 10:46:21;;;;;;;5.93;2.25;;;24.60;95.90;;;;;;5035508;28;20029;-87
2022/05/14 10:49:20;;;;;;;5.93;1.90;;;24.90;97.20;;;;;;5053178;28;20040;-87
2022/05/14 10:51:48;;;;;;;6.47;2.20;;;25.00;94.50;;;;;;5037398;28;20415;-81
2022/05/14 10:54:19;;;;;;;7.90;2.20;;;25.20;96.30;;;;;;5073109;28;20350;-81
2022/05/14 10:57:21;;;;;;;7.35;2.33;;;25.20;94.70;;;;;;5073136;28;20025;-82
2022/05/14 10:59:56;;;;;;;7.85;2.10;;;25.10;98.30;;;;;;5073605;28;20028;-82
2022/05/14 11:02:34;;;;;;;5.97;2.17;;;25.20;94.60;;;;;;5055423;28;20380;-82
2022/05/14 11:05:00;;;;;;;6.32;2.13;;;25.00;95.70;;;;;;5073457;28;20024;-81
2022/05/14 11:07:42;;;;;;;6.60;2.20;;;25.00;93.70;;;;;;5073288;28;20024;-82
2022/05/14 11:10:31;;;;;;;9.85;3.22;;;25.00;98.00;;;;;;5073567;28;20032;-82
2022/05/14 11:13:13;;;;;;;6.25;2.30;;;25.10;95.30;;;;;;5073539;28;20016;-82
2022/05/14 11:15:39;;;;;;;7.00;2.15;;;25.20;95.60;;;;;;5055373;28;20037;-82
2022/05/14 11:18:14;;;;;;;5.10;2.00;;;25.50;92.60;;;;;;5073386;28;20381;-82
2022/05/14 11:20:53;;;;;;;6.30;2.25;;;25.60;92.80;;;;;;5055018;28;20024;-82
2022/05/14 11:23:19;;;;;;;5.93;2.10;;;25.80;89.60;;;;;;5073132;28;20485;-82
2022/05/14 11:25:45;;;;;;;4.65;2.00;;;25.60;93.90;;;;;;5073122;28;20072;-82
2022/05/14 11:28:16;;;;;;;4.18;1.90;;;25.80;92.70;;;;;;5072229;28;20025;-82
2022/05/14 11:30:45;;;;;;;4.75;2.03;;;26.10;92.40;;;;;;5073163;28;20052;-82
2022/05/14 11:33:28;;;;;;;5.85;1.83;;;26.20;91.80;;;;;;5073164;28;20013;-82
2022/05/14 11:36:01;;;;;;;4.75;1.83;;;26.20;88.60;;;;;;5072841;28;20397;-82
2022/05/14 11:38:29;;;;;;;4.43;1.93;;;26.30;90.80;;;;;;5052812;28;20033;-82
2022/05/14 11:40:56;;;;;;;4.63;2.10;;;26.20;85.20;;;;;;5052793;28;20021;-82
2022/05/14 11:43:31;;;;;;;5.82;2.88;;;26.00;88.20;;;;;;5052599;28;20032;-82
2022/05/14 11:46:09;;;;;;;7.68;2.30;;;25.80;88.80;;;;;;5052791;28;20089;-82
2022/05/14 11:49:04;;;;;;;5.50;1.90;;;26.10;90.40;;;;;;5052918;28;20462;-82
2022/05/14 11:51:37;;;;;;;4.55;1.73;;;26.20;85.10;;;;;;5025120;28;20060;-82
2022/05/14 11:54:09;;;;;;;4.47;1.80;;;26.40;85.90;;;;;;5052830;28;20098;-82
2022/05/14 11:56:50;;;;;;;6.82;2.15;;;26.80;86.00;;;;;;5057401;28;20103;-82
2022/05/14 11:59:25;;;;;;;3.63;1.50;;;26.90;87.10;;;;;;5054524;28;20021;-82
2022/05/14 12:01:52;;;;;;;3.97;1.80;;;27.10;83.10;;;;;;5054732;28;20120;-82
2022/05/14 12:04:28;;;;;;;4.20;1.63;;;27.10;84.50;;;;;;5072579;28;20054;-82
2022/05/14 12:07:18;;;;;;;4.25;1.85;;;27.50;85.10;;;;;;5072840;28;20103;-82
2022/05/14 12:10:09;;;;;;;5.50;2.15;;;27.70;84.20;;;;;;5071544;28;20020;-84
2022/05/14 12:12:56;;;;;;;5.03;1.90;;;27.80;79.20;;;;;;5071567;28;20040;-84
2022/05/14 12:15:24;;;;;;;5.10;1.83;;;27.60;82.30;;;;;;5053695;28;20423;-84
2022/05/14 12:17:52;;;;;;;7.25;2.25;;;27.50;80.90;;;;;;5054463;28;20028;-84
2022/05/14 12:20:22;;;;;;;3.97;1.80;;;27.50;81.00;;;;;;5072687;28;20051;-84
2022/05/14 12:22:53;;;;;;;5.57;1.75;;;28.30;77.80;;;;;;5072463;28;20096;-84
2022/05/14 12:25:19;;;;;;;5.95;2.10;;;28.30;77.70;;;;;;5072455;28;20016;-85
2022/05/14 12:27:47;;;;;;;8.38;1.98;;;28.70;79.30;;;;;;5072566;28;20425;-84
2022/05/14 12:30:13;;;;;;;3.55;1.50;;;29.10;73.20;;;;;;5072791;28;20027;-85
2022/05/14 12:35:30;;;;;;;3.60;1.42;;;29.10;73.70;;;;;;5072934;28;20549;-84
2022/05/14 12:37:59;;;;;;;7.07;1.92;;;28.90;74.40;;;;;;5054487;28;20025;-85
2022/05/14 12:40:30;;;;;;;9.63;1.70;;;28.80;73.50;;;;;;5054725;28;20802;-84
2022/05/14 12:42:57;;;;;;;5.47;2.05;;;28.60;74.60;;;;;;5058423;28;20029;-84
2022/05/14 12:45:42;;;;;;;5.75;1.67;;;28.90;73.30;;;;;;5060208;28;20023;-89
2022/05/14 12:48:10;;;;;;;6.10;1.98;;;28.90;74.80;;;;;;5076200;28;20031;-89
2022/05/14 12:50:37;;;;;;;3.90;1.80;;;29.00;75.70;;;;;;5075825;28;20060;-89
2022/05/14 12:53:09;;;;;;;5.28;1.60;;;29.10;74.80;;;;;;5075678;28;20028;-89
2022/05/14 12:55:45;;;;;;;7.10;2.10;;;29.40;71.80;;;;;;5075692;28;20017;-89
2022/05/14 12:58:11;;;;;;;7.32;1.80;;;29.50;71.60;;;;;;5058288;28;20020;-89
2022/05/14 13:00:39;;;;;;;4.03;2.28;;;29.70;72.00;;;;;;5060064;28;20125;-88
2022/05/14 13:03:31;;;;;;;6.20;1.77;;;29.70;67.70;;;;;;5080105;28;20128;-89
2022/05/14 13:06:01;;;;;;;4.32;1.70;;;29.50;65.70;;;;;;5061676;28;20017;-89
2022/05/14 13:08:31;;;;;;;4.00;1.70;;;29.30;66.20;;;;;;5079582;28;20402;-89
2022/05/14 13:11:03;;;;;;;5.13;1.75;;;28.90;66.30;;;;;;5075153;28;20473;-83
2022/05/14 13:13:38;;;;;;;3.38;1.58;;;28.30;67.90;;;;;;5054860;28;20040;-73
2022/05/14 13:16:14;;;;;;;4.28;1.65;;;28.10;68.80;;;;;;5075785;28;20017;-76
2022/05/14 13:18:45;;;;;;;5.90;1.90;;;28.00;69.80;;;;;;5076284;28;20456;-77
2022/05/14 13:21:20;;;;;;;5.35;2.33;;;28.10;66.00;;;;;;5076714;28;20025;-73
2022/05/14 13:24:01;;;;;;;5.78;2.08;;;27.90;70.60;;;;;;5076392;28;20419;-74
2022/05/14 13:26:49;;;;;;;6.88;1.80;;;28.00;68.10;;;;;;5075734;28;20029;-74
2022/05/14 13:29:37;;;;;;;6.03;1.55;;;27.80;70.60;;;;;;5057237;28;20107;-74
2022/05/14 13:32:10;;;;;;;5.63;2.08;;;27.90;70.80;;;;;;5056756;28;20028;-73
2022/05/14 13:37:44;;;;;;;5.40;1.70;;;27.80;68.70;;;;;;5075521;28;20159;-72
2022/05/14 13:40:16;;;;;;;5.30;1.98;;;27.50;68.10;;;;;;5075460;28;20021;-73
2022/05/14 13:42:45;;;;;;;4.07;1.80;;;27.30;71.10;;;;;;5075245;28;20025;-74
2022/05/14 13:45:23;;;;;;;7.70;1.77;;;27.10;71.40;;;;;;5075178;28;20381;-73
2022/05/14 13:47:55;;;;;;;5.85;1.70;;;27.10;70.60;;;;;;5048952;28;20111;-73
2022/05/14 13:50:32;;;;;;;4.03;1.55;;;27.10;69.50;;;;;;5074932;28;20052;-73
2022/05/14 13:52:58;;;;;;;4.30;1.70;;;26.90;66.50;;;;;;5075112;28;20362;-73
2022/05/14 13:55:36;;;;;;;6.15;2.90;;;26.70;67.80;;;;;;5075234;28;20027;-73
2022/05/14 13:58:12;;;;;;;6.10;2.83;;;26.50;68.60;;;;;;5074865;28;20042;-73
2022/05/14 14:01:06;;;;;;;7.78;3.95;;;26.10;69.10;;;;;;5074957;28;20362;-73
2022/05/14 14:03:50;;;;;;;5.85;2.30;;;26.10;70.90;;;;;;5066717;28;20116;-73
2022/05/14 14:06:20;;;;;;;4.75;2.78;;;26.00;69.80;;;;;;5075110;28;20028;-73
2022/05/14 14:08:46;;;;;;;4.70;1.95;;;25.90;68.30;;;;;;5074862;28;20033;-73
2022/05/14 14:11:13;;;;;;;5.20;1.90;;;25.70;69.50;;;;;;5077359;28;20064;-73
2022/05/14 14:13:40;;;;;;;5.10;1.63;;;25.80;69.50;;;;;;5077703;28;20024;-73
2022/05/14 14:16:07;;;;;;;4.55;1.52;;;25.70;68.00;;;;;;5058655;28;20055;-72
2022/05/14 14:18:34;;;;;;;4.85;1.60;;;25.60;67.00;;;;;;5075183;28;20071;-73
2022/05/14 14:21:03;;;;;;;8.38;1.48;;;25.40;69.60;;;;;;5077510;28;20052;-72